createdAt,value
2019-04-21T00:15:18.097Z,0.00
2019-04-21T00:16:41.554Z,0.00
2019-04-21T00:17:34.760Z,0.00
2019-04-21T00:18:40.776Z,0.00
2019-04-21T00:20:09.114Z,0.00
2019-04-21T00:21:08.276Z,0.00
2019-04-21T00:22:34.290Z,0.00
2019-04-21T00:24:01.393Z,0.00
2019-04-21T00:25:23.549Z,0.00
2019-04-21T00:26:30.285Z,0.00
2019-04-21T00:27:51.619Z,0.00
2019-04-21T00:29:26.788Z,0.00
2019-04-21T00:30:21.340Z,0.00
2019-04-21T00:31:22.387Z,0.00
2019-04-21T00:32:35.262Z,0.00
2019-04-21T00:33:31.323Z,0.00
2019-04-21T00:34:56.315Z,0.00
2019-04-21T00:36:20.838Z,5.62
2019-04-21T00:38:00.615Z,5.62
2019-04-21T00:39:18.698Z,5.62
2019-04-21T00:40:28.608Z,5.62
2019-04-21T00:41:50.849Z,11.25
2019-04-21T00:43:13.693Z,11.25
2019-04-21T00:44:29.853Z,16.87
2019-04-21T00:45:55.654Z,16.87
2019-04-21T00:47:30.610Z,22.50
2019-04-21T00:48:55.119Z,22.50
2019-04-21T00:50:20.557Z,28.12
2019-04-21T00:51:53.912Z,33.75
2019-04-21T00:52:52.594Z,33.75
2019-04-21T00:53:51.888Z,39.37
2019-04-21T00:55:21.815Z,39.37
2019-04-21T00:56:18.233Z,39.37
2019-04-21T00:57:11.486Z,45.00
2019-04-21T00:58:35.934Z,45.00
2019-04-21T01:00:01.266Z,45.00
2019-04-21T01:01:59.963Z,45.00
2019-04-21T01:03:26.527Z,50.62
2019-04-21T01:04:51.420Z,56.25
2019-04-21T01:06:17.499Z,56.25
2019-04-21T01:07:12.453Z,61.87
2019-04-21T01:08:35.729Z,67.50
2019-04-21T01:09:34.304Z,73.12
2019-04-21T01:10:54.156Z,73.12
2019-04-21T01:12:01.291Z,78.75
2019-04-21T01:13:38.809Z,78.75
2019-04-21T01:14:35.823Z,78.75
2019-04-21T01:15:53.331Z,78.75
2019-04-21T01:16:57.946Z,78.75
2019-04-21T01:17:52.175Z,78.75
2019-04-21T01:19:17.338Z,84.37
2019-04-21T01:20:20.700Z,84.37
2019-04-21T01:21:20.690Z,84.37
2019-04-21T01:22:20.683Z,84.37
2019-04-21T01:23:21.389Z,78.75
2019-04-21T01:24:28.867Z,78.75
2019-04-21T01:26:00.630Z,78.75
2019-04-21T01:27:20.099Z,73.12
2019-04-21T01:28:52.847Z,67.50
2019-04-21T01:30:24.928Z,67.50
2019-04-21T01:31:17.426Z,61.87
2019-04-21T01:32:51.294Z,56.25
2019-04-21T01:34:12.679Z,56.25
2019-04-21T01:35:36.666Z,50.62
2019-04-21T01:36:59.886Z,50.62
2019-04-21T01:38:32.751Z,50.62
2019-04-21T01:39:53.239Z,39.37
2019-04-21T01:40:53.145Z,33.75
2019-04-21T01:41:50.981Z,33.75
2019-04-21T01:43:14.848Z,28.12
2019-04-21T01:44:43.075Z,22.50
2019-04-21T01:45:37.686Z,22.50
2019-04-21T01:46:58.431Z,16.87
2019-04-21T01:48:24.116Z,16.87
2019-04-21T01:49:43.241Z,11.25
2019-04-21T01:51:14.269Z,11.25
2019-04-21T01:52:51.446Z,11.25
2019-04-21T01:53:44.811Z,11.25
2019-04-21T01:55:08.107Z,5.62
2019-04-21T01:56:34.280Z,5.62
2019-04-21T01:57:54.043Z,5.62
2019-04-21T01:58:49.989Z,5.62
2019-04-21T02:00:13.362Z,5.62
2019-04-21T02:01:49.063Z,0.00
2019-04-21T02:03:28.179Z,0.00
2019-04-21T02:04:13.954Z,0.00
2019-04-21T02:05:21.246Z,0.00
2019-04-21T02:06:33.597Z,0.00
2019-04-21T02:08:02.567Z,0.00
2019-04-21T02:09:22.927Z,0.00
2019-04-21T02:10:54.692Z,0.00
2019-04-21T02:12:22.096Z,0.00
2019-04-21T02:13:11.846Z,0.00
2019-04-21T02:14:46.327Z,0.00
2019-04-21T02:16:06.522Z,0.00
2019-04-21T02:17:10.331Z,0.00
2019-04-21T02:18:27.621Z,0.00
2019-04-21T02:19:50.383Z,0.00
2019-04-21T02:20:47.622Z,0.00
2019-04-21T02:22:21.413Z,0.00
2019-04-21T02:23:34.424Z,0.00
2019-04-21T02:24:33.278Z,0.00
2019-04-21T02:25:21.806Z,0.00
2019-04-21T02:26:49.030Z,0.00
2019-04-21T02:28:12.326Z,0.00
2019-04-21T02:29:41.180Z,0.00
2019-04-21T02:30:56.522Z,0.00
2019-04-21T02:31:49.904Z,0.00
2019-04-21T02:32:47.992Z,0.00
2019-04-21T02:34:06.513Z,0.00
2019-04-21T02:36:40.254Z,0.00
2019-04-21T02:37:44.567Z,0.00
2019-04-21T02:38:42.286Z,0.00
2019-04-21T02:42:32.451Z,0.00
2019-04-21T02:43:25.585Z,0.00
2019-04-21T02:44:27.550Z,0.00
2019-04-21T02:45:34.631Z,0.00
2019-04-21T02:46:31.337Z,0.00
2019-04-21T02:47:36.954Z,0.00
2019-04-21T02:48:27.900Z,0.00
2019-04-21T02:49:38.188Z,0.00
2019-04-21T02:50:28.212Z,0.00
2019-04-21T02:51:27.968Z,5.62
2019-04-21T02:52:53.892Z,5.62
2019-04-21T02:54:24.999Z,5.62
2019-04-21T02:56:20.421Z,5.62
2019-04-21T02:58:20.789Z,5.62
2019-04-21T02:59:44.229Z,11.25
2019-04-21T03:00:34.583Z,11.25
2019-04-21T03:02:04.107Z,11.25
2019-04-21T03:03:07.002Z,11.25
2019-04-21T03:04:04.944Z,11.25
2019-04-21T03:09:29.675Z,28.12
2019-04-21T03:11:44.857Z,33.75
2019-04-21T03:13:14.074Z,39.37
2019-04-21T03:14:16.477Z,45.00
2019-04-21T03:16:26.513Z,56.25
2019-04-21T03:18:08.237Z,67.50
2019-04-21T03:19:00.241Z,73.12
2019-04-21T03:20:27.413Z,84.37
2019-04-21T03:21:20.459Z,90.00
2019-04-21T03:22:25.002Z,101.25
2019-04-21T03:25:20.476Z,123.75
2019-04-21T03:25:52.227Z,135.00
2019-04-21T03:28:13.993Z,174.37
2019-04-21T03:29:19.655Z,191.25
2019-04-21T03:30:32.741Z,241.87
2019-04-21T03:31:42.456Z,247.50
2019-04-21T03:35:34.527Z,315.00
2019-04-21T03:36:37.974Z,405.00
2019-04-21T03:37:11.371Z,478.12
2019-04-21T03:38:05.357Z,444.37
2019-04-21T03:38:53.316Z,444.37
2019-04-21T03:40:22.230Z,450.00
2019-04-21T03:42:00.225Z,455.62
2019-04-21T03:42:47.743Z,444.37
2019-04-21T03:44:16.962Z,466.87
2019-04-21T03:46:01.570Z,455.62
2019-04-21T03:46:41.281Z,438.75
2019-04-21T03:48:07.973Z,433.12
2019-04-21T03:49:11.964Z,416.25
2019-04-21T03:51:25.977Z,478.12
2019-04-21T03:52:45.545Z,495.00
2019-04-21T03:54:57.778Z,517.50
2019-04-21T03:57:38.583Z,556.87
2019-04-21T03:59:45.521Z,545.62
2019-04-21T04:02:45.537Z,545.62
2019-04-21T04:05:04.578Z,523.12
2019-04-21T04:10:13.882Z,483.75
2019-04-21T04:11:29.471Z,472.50
2019-04-21T04:12:12.599Z,461.25
2019-04-21T04:13:20.465Z,461.25
2019-04-21T04:14:32.709Z,461.25
2019-04-21T04:15:13.779Z,461.25
2019-04-21T04:16:37.467Z,472.50
2019-04-21T04:17:40.818Z,483.75
2019-04-21T04:18:46.680Z,483.75
2019-04-21T04:20:03.960Z,478.12
2019-04-21T04:21:20.685Z,472.50
2019-04-21T04:22:20.898Z,455.62
2019-04-21T04:23:02.814Z,455.62
2019-04-21T04:25:49.366Z,450.00
2019-04-21T04:27:35.187Z,444.37
2019-04-21T04:28:18.931Z,450.00
2019-04-21T04:29:20.354Z,455.62
2019-04-21T04:31:52.895Z,461.25
2019-04-21T04:34:14.651Z,450.00
2019-04-21T04:36:46.674Z,438.75
2019-04-21T04:37:59.124Z,438.75
2019-04-21T04:39:59.946Z,444.37
2019-04-21T04:40:57.518Z,450.00
2019-04-21T04:42:43.293Z,461.25
2019-04-21T04:43:30.467Z,472.50
2019-04-21T04:45:48.258Z,500.62
2019-04-21T04:48:13.487Z,523.12
2019-04-21T04:49:25.236Z,523.12
2019-04-21T04:50:06.792Z,523.12
2019-04-21T04:51:51.645Z,517.50
2019-04-21T04:54:21.798Z,523.12
2019-04-21T04:55:03.476Z,523.12
2019-04-21T05:00:18.137Z,523.12
2019-04-21T05:01:21.655Z,517.50
2019-04-21T05:05:14.858Z,478.12
2019-04-21T05:06:12.007Z,466.87
2019-04-21T05:07:07.113Z,455.62
2019-04-21T05:08:08.532Z,444.37
2019-04-21T05:09:10.934Z,433.12
2019-04-21T05:09:59.638Z,421.87
2019-04-21T05:11:23.413Z,421.87
2019-04-21T05:12:17.550Z,421.87
2019-04-21T05:13:13.288Z,416.25
2019-04-21T05:14:11.612Z,410.62
2019-04-21T05:19:04.258Z,365.62
2019-04-21T05:20:08.727Z,348.75
2019-04-21T05:20:52.204Z,331.87
2019-04-21T05:21:46.651Z,320.62
2019-04-21T05:22:47.655Z,309.37
2019-04-21T05:24:08.126Z,292.50
2019-04-21T05:25:05.691Z,286.87
2019-04-21T05:26:27.498Z,275.62
2019-04-21T05:27:54.661Z,264.37
2019-04-21T05:29:15.866Z,253.12
2019-04-21T05:30:30.742Z,241.87
2019-04-21T05:31:50.953Z,225.00
2019-04-21T05:33:24.469Z,213.75
2019-04-21T05:34:39.056Z,213.75
2019-04-21T05:35:14.110Z,213.75
2019-04-21T05:36:38.225Z,208.12
2019-04-21T05:38:00.100Z,202.50
2019-04-21T05:39:27.432Z,196.87
2019-04-21T05:40:24.911Z,185.62
2019-04-21T05:41:41.235Z,185.62
2019-04-21T05:43:18.728Z,180.00
2019-04-21T05:44:51.594Z,168.75
2019-04-21T05:45:40.563Z,151.87
2019-04-21T05:47:15.931Z,135.00
2019-04-21T05:48:35.103Z,118.12
2019-04-21T05:49:32.711Z,118.12
2019-04-21T05:50:50.841Z,112.50
2019-04-21T05:52:21.527Z,118.12
2019-04-21T05:53:52.082Z,123.75
2019-04-21T05:54:57.863Z,129.37
2019-04-21T05:55:54.569Z,135.00
2019-04-21T05:56:48.824Z,140.62
2019-04-21T05:58:09.715Z,146.25
2019-04-21T05:59:37.903Z,151.87
2019-04-21T06:01:06.349Z,146.25
2019-04-21T06:01:39.428Z,135.00
2019-04-21T06:02:35.454Z,118.12
2019-04-21T06:04:07.630Z,95.62
2019-04-21T06:05:14.139Z,78.75
2019-04-21T06:06:10.387Z,61.87
2019-04-21T06:07:28.795Z,45.00
2019-04-21T06:08:28.627Z,39.37
2019-04-21T06:09:58.643Z,28.12
2019-04-21T06:10:52.476Z,28.12
2019-04-21T06:11:53.826Z,28.12
2019-04-21T06:13:22.097Z,28.12
2019-04-21T06:14:43.904Z,39.37
2019-04-21T06:16:23.227Z,50.62
2019-04-21T06:17:15.343Z,67.50
2019-04-21T06:18:35.351Z,90.00
2019-04-21T06:19:57.306Z,106.87
2019-04-21T06:21:16.153Z,118.12
2019-04-21T06:22:19.556Z,123.75
2019-04-21T06:23:42.375Z,135.00
2019-04-21T06:25:35.897Z,146.25
2019-04-21T06:26:46.893Z,157.50
2019-04-21T06:27:22.907Z,174.37
2019-04-21T06:28:12.013Z,191.25
2019-04-21T06:29:36.179Z,191.25
2019-04-21T06:31:29.269Z,180.00
2019-04-21T06:33:27.461Z,135.00
2019-04-21T06:35:07.333Z,112.50
2019-04-21T06:36:12.681Z,95.62
2019-04-21T06:38:28.376Z,61.87
2019-04-21T06:39:54.170Z,50.62
2019-04-21T06:40:42.261Z,39.37
2019-04-21T06:42:07.720Z,28.12
2019-04-21T06:43:36.644Z,22.50
2019-04-21T06:44:32.069Z,16.87
2019-04-21T06:45:37.787Z,16.87
2019-04-21T06:46:40.790Z,11.25
2019-04-21T06:47:39.118Z,11.25
2019-04-21T06:48:58.357Z,16.87
2019-04-21T06:49:58.990Z,16.87
2019-04-21T06:51:03.170Z,22.50
2019-04-21T06:51:55.481Z,22.50
2019-04-21T06:52:53.865Z,33.75
2019-04-21T06:54:00.770Z,39.37
2019-04-21T06:55:19.918Z,56.25
2019-04-21T06:56:27.456Z,67.50
2019-04-21T06:57:56.117Z,90.00
2019-04-21T06:58:46.354Z,101.25
2019-04-21T07:00:07.449Z,106.87
2019-04-21T07:01:10.158Z,106.87
2019-04-21T07:05:26.215Z,118.12
2019-04-21T07:08:11.303Z,118.12
2019-04-21T07:10:37.124Z,123.75
2019-04-21T07:11:38.161Z,135.00
2019-04-21T07:12:59.279Z,123.75
2019-04-21T07:15:58.814Z,61.87
2019-04-21T07:17:28.124Z,45.00
2019-04-21T07:18:31.052Z,39.37
2019-04-21T07:19:55.416Z,33.75
2019-04-21T07:20:54.923Z,28.12
2019-04-21T07:22:23.039Z,28.12
2019-04-21T07:23:16.317Z,33.75
2019-04-21T07:25:00.153Z,33.75
2019-04-21T07:25:49.637Z,33.75
2019-04-21T07:26:45.899Z,33.75
2019-04-21T07:28:49.900Z,33.75
2019-04-21T07:30:04.249Z,28.12
2019-04-21T07:31:31.904Z,28.12
2019-04-21T07:32:34.818Z,28.12
2019-04-21T07:33:52.383Z,22.50
2019-04-21T07:35:00.642Z,28.12
2019-04-21T07:35:55.774Z,28.12
2019-04-21T07:37:17.381Z,28.12
2019-04-21T07:38:41.285Z,33.75
2019-04-21T07:40:07.801Z,39.37
2019-04-21T07:41:25.069Z,45.00
2019-04-21T07:42:51.162Z,56.25
2019-04-21T07:44:19.566Z,67.50
2019-04-21T07:45:40.807Z,78.75
2019-04-21T07:47:09.721Z,90.00
2019-04-21T07:48:40.158Z,101.25
2019-04-21T07:50:00.652Z,118.12
2019-04-21T07:51:04.000Z,123.75
2019-04-21T07:52:33.478Z,123.75
2019-04-21T07:53:55.330Z,112.50
2019-04-21T07:56:06.511Z,101.25
2019-04-21T07:57:39.109Z,90.00
2019-04-21T07:58:47.745Z,84.37
2019-04-21T08:00:21.365Z,90.00
2019-04-21T08:01:15.921Z,101.25
2019-04-21T08:02:15.986Z,106.87
2019-04-21T08:03:07.923Z,118.12
2019-04-21T08:04:08.434Z,123.75
2019-04-21T08:05:33.961Z,123.75
2019-04-21T08:06:34.969Z,112.50
2019-04-21T08:09:20.867Z,95.62
2019-04-21T08:10:45.517Z,84.37
2019-04-21T08:12:04.020Z,84.37
2019-04-21T08:13:09.886Z,90.00
2019-04-21T08:14:35.510Z,123.75
2019-04-21T08:15:39.537Z,151.87
2019-04-21T08:16:39.733Z,180.00
2019-04-21T08:17:59.695Z,208.12
2019-04-21T08:19:05.371Z,230.62
2019-04-21T08:20:24.011Z,264.37
2019-04-21T08:21:29.924Z,292.50
2019-04-21T08:22:52.804Z,326.25
2019-04-21T08:25:47.676Z,382.50
2019-04-21T08:27:04.976Z,405.00
2019-04-21T08:28:33.811Z,421.87
2019-04-21T08:29:33.075Z,427.50
2019-04-21T08:30:32.259Z,433.12
2019-04-21T08:31:41.690Z,450.00
2019-04-21T08:34:25.505Z,466.87
2019-04-21T08:36:40.272Z,466.87
2019-04-21T08:38:08.537Z,461.25
2019-04-21T08:39:45.563Z,455.62
2019-04-21T08:41:05.146Z,444.37
2019-04-21T08:41:59.003Z,433.12
2019-04-21T08:43:32.040Z,433.12
2019-04-21T08:44:48.736Z,438.75
2019-04-21T08:45:48.154Z,444.37
2019-04-21T08:47:15.413Z,438.75
2019-04-21T08:48:39.939Z,433.12
2019-04-21T08:50:03.431Z,444.37
2019-04-21T08:51:33.305Z,438.75
2019-04-21T08:53:55.085Z,416.25
2019-04-21T08:54:55.784Z,405.00
2019-04-21T08:56:18.450Z,393.75
2019-04-21T08:57:51.015Z,371.25
2019-04-21T08:59:12.793Z,360.00
2019-04-21T09:00:16.367Z,371.25
2019-04-21T09:01:10.586Z,382.50
2019-04-21T09:02:37.312Z,405.00
2019-04-21T09:03:28.575Z,393.75
2019-04-21T09:04:52.700Z,360.00
2019-04-21T09:06:00.080Z,343.12
2019-04-21T09:07:26.927Z,320.62
2019-04-21T09:08:21.635Z,309.37
2019-04-21T09:09:47.676Z,315.00
2019-04-21T09:11:47.587Z,337.50
2019-04-21T09:12:43.118Z,360.00
